Time;durP1;ratioP1;P1;durP2;ratioP2;P2;SDS_P1;SDS_P2;PMS_P1;PMS_P2;Temp;Humidity;BMP_temperature;BMP_pressure;BME280_temperature;BME280_humidity;BME280_pressure;Samples;Min_cycle;Max_cycle;Signal;HPM_P1;HPM_P2
2022/12/27 00:01:15;;;;;;;10.17;1.43;;;6.50;99.90;;;;;;5013180;28;20272;-53
2022/12/27 00:03:41;;;;;;;9.37;1.00;;;6.50;99.90;;;;;;4995702;28;20201;-53
2022/12/27 00:06:18;;;;;;;8.73;1.33;;;6.50;99.90;;;;;;5005852;28;20178;-53
2022/12/27 00:08:45;;;;;;;10.97;1.27;;;6.50;99.90;;;;;;5013604;28;20178;-53
2022/12/27 00:11:13;;;;;;;9.33;1.40;;;6.50;99.90;;;;;;5013635;28;20712;-54
2022/12/27 00:13:39;;;;;;;8.10;1.20;;;6.40;99.90;;;;;;5013690;28;20225;-54
2022/12/27 00:16:09;;;;;;;12.83;1.67;;;6.60;99.90;;;;;;5013403;28;20253;-53
2022/12/27 00:18:35;;;;;;;11.07;1.37;;;6.50;99.90;;;;;;5012323;28;20186;-54
2022/12/27 00:21:02;;;;;;;5.13;1.23;;;6.40;99.90;;;;;;5012002;28;20206;-54
2022/12/27 00:23:31;;;;;;;14.30;1.30;;;6.40;99.90;;;;;;5007100;28;20181;-54
2022/12/27 00:26:05;;;;;;;6.23;1.30;;;6.40;99.90;;;;;;5033036;28;20632;-54
2022/12/27 00:28:32;;;;;;;7.80;1.63;;;6.40;99.90;;;;;;5016334;28;20183;-54
2022/12/27 00:30:58;;;;;;;11.00;1.33;;;6.40;99.90;;;;;;5013316;28;20211;-54
2022/12/27 00:33:26;;;;;;;7.43;1.27;;;6.40;99.90;;;;;;5013256;28;20181;-54
2022/12/27 00:35:51;;;;;;;9.97;1.63;;;6.30;99.90;;;;;;5013246;28;20245;-54
2022/12/27 00:38:18;;;;;;;9.87;1.97;;;6.30;99.90;;;;;;5013067;28;20174;-56
2022/12/27 00:40:43;;;;;;;17.23;2.13;;;6.30;99.90;;;;;;4996233;28;20213;-54
2022/12/27 00:43:09;;;;;;;11.33;1.87;;;6.20;99.90;;;;;;4993471;28;20538;-54
2022/12/27 00:45:34;;;;;;;9.50;1.87;;;6.20;99.90;;;;;;4989687;28;20515;-52
2022/12/27 00:48:00;;;;;;;10.53;1.83;;;6.10;99.90;;;;;;4993798;28;20201;-52
2022/12/27 00:50:26;;;;;;;13.80;1.70;;;5.90;99.90;;;;;;5008496;28;20226;-53
2022/12/27 00:52:52;;;;;;;8.60;1.60;;;6.00;99.90;;;;;;5012623;28;20281;-53
2022/12/27 00:55:17;;;;;;;15.13;2.27;;;5.90;99.90;;;;;;5012168;28;20265;-54
2022/12/27 00:57:43;;;;;;;21.50;2.40;;;5.90;99.90;;;;;;5008678;28;20210;-53
2022/12/27 01:00:10;;;;;;;14.23;2.40;;;5.90;99.90;;;;;;5000895;28;20269;-54
2022/12/27 01:02:36;;;;;;;8.43;2.13;;;5.90;99.90;;;;;;5009311;28;20244;-53
2022/12/27 01:05:01;;;;;;;11.60;2.50;;;5.80;99.90;;;;;;4996219;28;20249;-53
2022/12/27 01:07:27;;;;;;;9.60;2.60;;;5.80;99.90;;;;;;5012361;28;20672;-53
2022/12/27 01:09:53;;;;;;;10.63;2.63;;;5.80;99.90;;;;;;5011188;28;20535;-53
2022/12/27 01:12:18;;;;;;;11.80;2.60;;;5.70;99.90;;;;;;5012334;28;20602;-53
2022/12/27 01:14:44;;;;;;;16.83;2.80;;;5.60;99.90;;;;;;5011832;28;20253;-54
2022/12/27 01:17:09;;;;;;;13.67;3.30;;;5.60;99.90;;;;;;5011683;28;20219;-54
2022/12/27 01:19:36;;;;;;;11.83;3.00;;;5.60;99.90;;;;;;5004346;28;20273;-54
2022/12/27 01:22:02;;;;;;;18.97;3.40;;;5.60;99.90;;;;;;5011724;28;20673;-55
2022/12/27 01:24:28;;;;;;;15.13;4.70;;;5.60;99.90;;;;;;5011943;28;20178;-54
2022/12/27 01:26:54;;;;;;;22.37;4.80;;;5.60;99.90;;;;;;5012046;28;20178;-53
2022/12/27 01:29:19;;;;;;;20.97;5.70;;;5.60;99.90;;;;;;5011953;28;20174;-53
2022/12/27 01:31:45;;;;;;;30.80;8.07;;;5.60;99.90;;;;;;5011799;28;20261;-53
2022/12/27 01:34:11;;;;;;;34.90;11.80;;;5.60;99.90;;;;;;5011615;28;20175;-53
2022/12/27 01:36:37;;;;;;;44.97;15.20;;;5.60;99.90;;;;;;5012084;28;20178;-54
2022/12/27 01:39:03;;;;;;;68.63;23.77;;;5.60;99.90;;;;;;5011629;28;20174;-54
2022/12/27 01:44:50;;;;;;;50.23;17.93;;;5.70;99.90;;;;;;5010463;28;20587;-54
2022/12/27 01:47:23;;;;;;;48.03;16.53;;;5.80;99.90;;;;;;5007422;28;20229;-53
2022/12/27 01:50:01;;;;;;;35.33;13.33;;;5.90;99.90;;;;;;5001061;28;20305;-53
2022/12/27 01:52:58;;;;;;;33.67;11.90;;;6.00;99.90;;;;;;5011539;28;20228;-53
2022/12/27 01:55:39;;;;;;;33.10;11.13;;;6.00;99.90;;;;;;5011039;28;20199;-54
2022/12/27 01:58:24;;;;;;;29.20;10.10;;;6.00;99.90;;;;;;5011116;28;20182;-53
2022/12/27 02:00:50;;;;;;;27.80;10.27;;;6.00;99.90;;;;;;5010810;28;20222;-54
2022/12/27 02:03:34;;;;;;;29.30;9.77;;;6.00;99.90;;;;;;5011431;28;20217;-53
2022/12/27 02:06:03;;;;;;;25.40;7.53;;;5.90;99.90;;;;;;5010749;28;20175;-53
2022/12/27 02:08:40;;;;;;;26.00;8.37;;;5.90;99.90;;;;;;5011414;28;20196;-53
2022/12/27 02:11:07;;;;;;;25.13;7.47;;;6.00;99.90;;;;;;5011515;28;20534;-54
2022/12/27 02:13:37;;;;;;;20.93;6.70;;;6.00;99.90;;;;;;5011648;28;20166;-54
2022/12/27 02:16:10;;;;;;;18.10;7.00;;;6.00;99.90;;;;;;5011572;28;20252;-54
2022/12/27 02:18:36;;;;;;;28.70;7.20;;;5.90;99.90;;;;;;5011638;28;20189;-54
2022/12/27 02:21:20;;;;;;;20.77;6.40;;;5.90;99.90;;;;;;5011357;28;20569;-54
2022/12/27 02:24:02;;;;;;;16.20;4.07;;;5.90;99.90;;;;;;5011417;28;20179;-53
2022/12/27 02:26:35;;;;;;;20.33;4.70;;;5.90;99.90;;;;;;5011327;28;20187;-52
2022/12/27 02:29:36;;;;;;;21.03;4.43;;;5.90;99.90;;;;;;5011249;28;20198;-55
2022/12/27 02:32:28;;;;;;;8.60;2.87;;;5.90;99.90;;;;;;5002106;28;20189;-54
2022/12/27 02:35:14;;;;;;;11.97;3.10;;;6.00;99.90;;;;;;5009140;28;20205;-54
2022/12/27 02:37:48;;;;;;;13.27;2.30;;;6.00;99.90;;;;;;5003248;28;20765;-54
2022/12/27 02:54:57;;;;;;;10.77;2.17;;;6.60;99.90;;;;;;5010734;28;20201;-54
2022/12/27 02:57:52;;;;;;;11.23;1.83;;;5.90;99.90;;;;;;5010635;28;20167;-54
2022/12/27 03:03:28;;;;;;;6.27;1.20;;;6.20;99.90;;;;;;5010906;28;20285;-54
2022/12/27 03:09:10;;;;;;;4.60;1.10;;;6.10;99.90;;;;;;5010027;28;20319;-54
2022/12/27 03:17:43;;;;;;;3.77;1.00;;;6.10;99.90;;;;;;5008779;28;20193;-54
2022/12/27 03:25:48;;;;;;;5.53;1.20;;;6.10;99.90;;;;;;5010134;28;20266;-54
2022/12/27 03:34:03;;;;;;;6.87;0.93;;;6.10;99.90;;;;;;4998557;28;21041;-54
2022/12/27 03:39:35;;;;;;;9.23;1.50;;;6.20;99.90;;;;;;5009116;28;20641;-55
2022/12/27 03:44:55;;;;;;;10.20;1.30;;;6.20;99.90;;;;;;5014539;28;20239;-54
2022/12/27 03:47:26;;;;;;;6.30;0.93;;;6.30;99.90;;;;;;5013981;28;20178;-54
2022/12/27 03:50:28;;;;;;;11.37;1.17;;;6.30;99.90;;;;;;4999857;28;20175;-53
2022/12/27 03:53:01;;;;;;;8.47;1.20;;;6.30;99.90;;;;;;5006505;28;20302;-55
2022/12/27 03:55:27;;;;;;;8.27;0.70;;;6.60;99.90;;;;;;5013924;28;20192;-54
2022/12/27 03:57:52;;;;;;;9.27;1.00;;;6.40;99.90;;;;;;5013567;28;20190;-53
2022/12/27 04:00:18;;;;;;;11.93;1.03;;;6.40;99.90;;;;;;5013174;28;20214;-54
2022/12/27 04:02:44;;;;;;;6.53;1.93;;;6.50;99.90;;;;;;5013654;28;20190;-53
2022/12/27 04:05:10;;;;;;;10.63;1.23;;;6.70;99.90;;;;;;5013373;28;20810;-55
2022/12/27 04:07:35;;;;;;;7.50;0.90;;;6.40;99.90;;;;;;5013521;28;20187;-53
2022/12/27 04:34:43;;;;;;;5.93;0.90;;;6.40;99.90;;;;;;5005554;28;20185;-54
2022/12/27 04:37:16;;;;;;;10.17;1.20;;;6.50;99.90;;;;;;5005483;28;20182;-53
2022/12/27 04:54:55;;;;;;;10.63;1.27;;;6.60;99.90;;;;;;5005871;28;20661;-53
2022/12/27 04:56:16;;;;;;;5.47;1.10;;;6.60;99.90;;;;;;5001682;28;20232;-53
2022/12/27 05:02:01;;;;;;;8.03;1.20;;;6.70;99.90;;;;;;5012920;28;20179;-53
2022/12/27 05:04:11;;;;;;;9.13;1.43;;;6.70;99.90;;;;;;5008031;28;20180;-53
2022/12/27 05:06:37;;;;;;;10.20;1.23;;;6.70;99.90;;;;;;4999712;28;20613;-53
2022/12/27 05:13:58;;;;;;;11.40;1.30;;;6.80;99.90;;;;;;5012564;28;20193;-54
2022/12/27 05:14:44;;;;;;;5.97;0.90;;;6.70;99.90;;;;;;5004366;28;20198;-53
2022/12/27 05:17:10;;;;;;;10.83;1.30;;;6.80;99.90;;;;;;5002188;28;20196;-53
2022/12/27 05:19:36;;;;;;;9.67;0.80;;;6.70;99.90;;;;;;4996631;28;20187;-53
2022/12/27 05:27:30;;;;;;;6.07;1.00;;;7.10;99.90;;;;;;5000314;28;20651;-53
2022/12/27 05:29:55;;;;;;;6.77;1.47;;;6.80;99.90;;;;;;5010263;28;20187;-53
2022/12/27 05:32:21;;;;;;;4.80;0.70;;;6.80;99.90;;;;;;5011487;28;20202;-53
2022/12/27 05:34:46;;;;;;;4.90;0.80;;;6.80;99.90;;;;;;5011624;28;20190;-54
2022/12/27 05:37:12;;;;;;;8.37;1.27;;;6.90;99.90;;;;;;5012179;28;20210;-53
2022/12/27 05:39:38;;;;;;;7.90;1.20;;;6.90;99.90;;;;;;5011987;28;20305;-54
2022/12/27 05:42:03;;;;;;;6.70;1.00;;;6.90;99.90;;;;;;5011825;28;20233;-54
2022/12/27 05:44:29;;;;;;;3.87;0.93;;;7.00;99.90;;;;;;5005249;28;20687;-54
2022/12/27 05:46:55;;;;;;;8.37;1.00;;;7.00;99.90;;;;;;5007379;28;20193;-54
2022/12/27 05:49:20;;;;;;;7.73;1.00;;;7.00;99.90;;;;;;5011566;28;20174;-54
2022/12/27 05:51:46;;;;;;;7.20;1.20;;;7.00;99.90;;;;;;5011578;28;20222;-54
2022/12/27 05:54:12;;;;;;;7.93;1.00;;;7.00;99.90;;;;;;5011340;28;20186;-53
2022/12/27 05:56:37;;;;;;;5.70;0.90;;;7.00;99.90;;;;;;5011527;28;20182;-53
2022/12/27 05:59:06;;;;;;;9.90;1.30;;;7.00;99.90;;;;;;5011843;28;20229;-53
2022/12/27 06:01:32;;;;;;;9.23;0.70;;;7.10;99.90;;;;;;5011355;28;20305;-53
2022/12/27 06:03:58;;;;;;;6.97;0.80;;;7.20;99.90;;;;;;5010917;28;20253;-54
2022/12/27 06:06:24;;;;;;;8.73;1.23;;;7.10;99.90;;;;;;5011231;28;20712;-53
2022/12/27 06:08:49;;;;;;;8.63;1.20;;;7.20;99.90;;;;;;5011547;28;20176;-53
2022/12/27 06:11:17;;;;;;;9.83;0.90;;;7.20;99.90;;;;;;5011550;28;20857;-53
2022/12/27 06:13:47;;;;;;;6.90;1.27;;;7.20;99.90;;;;;;5011482;28;20162;-53
2022/12/27 06:16:13;;;;;;;8.97;1.20;;;7.20;99.90;;;;;;5011478;28;20269;-54
2022/12/27 06:18:40;;;;;;;8.47;1.17;;;7.20;99.90;;;;;;5011383;28;20274;-54
2022/12/27 06:21:18;;;;;;;6.50;1.17;;;7.20;99.90;;;;;;5011401;28;20217;-54
2022/12/27 06:23:45;;;;;;;6.97;0.70;;;7.00;99.90;;;;;;5005340;28;20289;-54
2022/12/27 06:26:14;;;;;;;9.30;0.80;;;5.80;99.90;;;;;;5011384;28;20182;-54
2022/12/27 06:28:39;;;;;;;12.13;1.50;;;7.20;99.90;;;;;;5011462;28;20228;-53
2022/12/27 06:31:05;;;;;;;6.13;1.00;;;7.10;99.90;;;;;;5011326;28;20182;-53
2022/12/27 06:33:31;;;;;;;5.53;0.83;;;7.10;99.90;;;;;;5011575;28;20170;-54
2022/12/27 06:35:57;;;;;;;4.03;0.77;;;7.10;99.90;;;;;;5010892;28;20170;-54
2022/12/27 06:38:23;;;;;;;9.83;1.00;;;7.00;99.90;;;;;;5011204;28;20342;-54
2022/12/27 06:40:49;;;;;;;5.50;1.10;;;7.00;99.90;;;;;;5008222;28;20256;-53
2022/12/27 06:43:14;;;;;;;3.53;0.80;;;7.00;99.90;;;;;;5010123;28;20197;-54
2022/12/27 06:45:40;;;;;;;11.10;1.10;;;7.00;99.90;;;;;;5010982;28;20178;-54
2022/12/27 06:48:06;;;;;;;6.53;1.07;;;7.00;99.90;;;;;;5008688;28;20194;-54
2022/12/27 06:50:31;;;;;;;6.93;1.00;;;6.90;99.90;;;;;;4992683;28;20238;-54
2022/12/27 06:52:57;;;;;;;9.90;0.90;;;6.90;99.90;;;;;;5010860;28;20637;-54
2022/12/27 06:55:22;;;;;;;9.30;0.90;;;6.90;99.90;;;;;;5011020;28;20233;-54
2022/12/27 06:57:50;;;;;;;10.67;1.17;;;6.80;99.90;;;;;;5010683;28;20692;-54
2022/12/27 07:00:16;;;;;;;6.33;0.90;;;6.90;99.90;;;;;;5010844;28;20194;-54
2022/12/27 07:02:42;;;;;;;6.80;0.70;;;6.90;99.90;;;;;;5010922;28;20201;-54
2022/12/27 07:05:07;;;;;;;9.67;0.90;;;6.90;99.90;;;;;;5010634;28;20175;-54
2022/12/27 07:07:33;;;;;;;4.03;0.80;;;6.90;99.90;;;;;;5010718;28;20177;-53
2022/12/27 07:09:59;;;;;;;8.50;0.90;;;6.70;99.90;;;;;;5010845;28;20178;-54
2022/12/27 07:12:25;;;;;;;4.40;0.83;;;;;;;;;;5011042;28;20173;-54
2022/12/27 07:14:50;;;;;;;5.87;0.93;;;6.80;99.90;;;;;;5010418;28;20711;-54
2022/12/27 07:17:16;;;;;;;12.67;1.33;;;6.80;99.90;;;;;;5012095;28;20261;-55
2022/12/27 07:19:41;;;;;;;10.63;0.70;;;6.70;99.90;;;;;;5010574;28;20285;-53
2022/12/27 07:22:07;;;;;;;13.27;1.23;;;6.70;99.90;;;;;;5014390;28;20256;-55
2022/12/27 07:24:33;;;;;;;9.90;1.10;;;6.80;99.90;;;;;;5014340;28;20907;-55
2022/12/27 07:26:59;;;;;;;4.73;0.70;;;6.80;99.90;;;;;;5014170;28;20190;-55
2022/12/27 07:29:25;;;;;;;5.20;0.87;;;6.80;99.90;;;;;;5013945;28;20207;-55
2022/12/27 07:31:50;;;;;;;13.63;1.30;;;6.90;99.90;;;;;;5014204;28;20263;-55
2022/12/27 07:34:16;;;;;;;8.77;1.10;;;6.80;99.90;;;;;;5013950;28;20669;-55
2022/12/27 07:36:42;;;;;;;5.43;1.17;;;6.80;99.90;;;;;;5014089;28;20186;-55
2022/12/27 07:39:08;;;;;;;6.07;1.20;;;6.80;99.90;;;;;;5013836;28;20187;-55
2022/12/27 07:41:34;;;;;;;7.50;1.00;;;6.90;99.90;;;;;;5014049;28;20301;-55
2022/12/27 07:44:01;;;;;;;8.67;1.13;;;6.90;99.90;;;;;;5013480;28;20361;-55
2022/12/27 07:46:26;;;;;;;12.63;1.37;;;7.00;99.90;;;;;;5010257;28;20267;-55
2022/12/27 07:48:54;;;;;;;7.67;1.17;;;7.10;99.90;;;;;;5011581;28;20617;-55
2022/12/27 07:51:20;;;;;;;8.37;1.17;;;7.10;99.90;;;;;;5010820;28;20865;-52
2022/12/27 07:53:50;;;;;;;7.57;0.93;;;7.20;99.90;;;;;;5003385;28;20229;-54
2022/12/27 07:56:24;;;;;;;8.73;0.90;;;7.20;99.90;;;;;;4994287;28;20171;-54
2022/12/27 07:58:50;;;;;;;9.40;1.10;;;7.20;99.90;;;;;;5012462;28;20182;-54
2022/12/27 08:01:17;;;;;;;12.77;1.60;;;7.20;99.90;;;;;;5013640;28;20210;-54
2022/12/27 08:03:44;;;;;;;9.97;1.37;;;7.20;99.90;;;;;;5013568;28;20175;-55
2022/12/27 08:06:23;;;;;;;7.93;1.03;;;7.10;99.90;;;;;;5013710;28;20174;-55
2022/12/27 08:08:50;;;;;;;9.77;1.10;;;7.10;99.90;;;;;;5013236;28;20257;-55
2022/12/27 08:11:16;;;;;;;12.13;1.33;;;7.00;99.90;;;;;;5013668;28;20617;-55
2022/12/27 08:13:42;;;;;;;6.87;1.00;;;7.00;99.90;;;;;;5013642;28;20266;-55
2022/12/27 08:16:14;;;;;;;12.87;1.13;;;7.00;99.90;;;;;;5010464;28;20175;-55
2022/12/27 08:18:39;;;;;;;11.17;1.17;;;7.00;99.90;;;;;;5010057;28;20676;-56
2022/12/27 08:21:05;;;;;;;12.07;1.40;;;7.00;99.90;;;;;;5013534;28;20216;-55
2022/12/27 08:23:31;;;;;;;10.30;1.33;;;7.00;99.90;;;;;;5013397;28;20189;-55
2022/12/27 08:25:56;;;;;;;8.33;1.00;;;6.90;99.90;;;;;;5013477;28;20179;-55
2022/12/27 08:28:22;;;;;;;12.80;1.20;;;7.20;99.90;;;;;;5013122;28;20266;-56
2022/12/27 08:30:47;;;;;;;11.83;1.50;;;6.90;99.90;;;;;;5013147;28;20182;-55
2022/12/27 08:33:16;;;;;;;5.70;1.03;;;7.00;99.90;;;;;;5013323;28;20170;-55
2022/12/27 08:35:43;;;;;;;14.63;1.17;;;7.10;99.90;;;;;;5013350;28;20167;-55
2022/12/27 08:38:09;;;;;;;11.13;1.60;;;7.20;99.90;;;;;;5012671;28;20321;-53
2022/12/27 08:40:39;;;;;;;9.40;1.17;;;7.20;99.90;;;;;;5013049;28;20612;-53
2022/12/27 08:43:04;;;;;;;4.60;0.87;;;7.20;99.90;;;;;;5012904;28;20202;-53
2022/12/27 08:45:30;;;;;;;11.50;1.23;;;7.30;99.90;;;;;;5013065;28;20513;-53
2022/12/27 08:47:59;;;;;;;13.33;1.83;;;6.60;99.90;;;;;;4998620;28;20290;-54
2022/12/27 08:50:26;;;;;;;9.73;1.53;;;7.60;99.90;;;;;;5012732;28;20195;-53
2022/12/27 08:52:56;;;;;;;6.97;1.00;;;7.60;99.90;;;;;;5012386;28;20190;-54
2022/12/27 08:55:21;;;;;;;11.27;1.57;;;7.50;99.90;;;;;;5011965;28;20653;-54
2022/12/27 08:57:47;;;;;;;11.37;2.10;;;7.70;99.90;;;;;;5012633;28;20261;-54
2022/12/27 09:00:13;;;;;;;5.17;1.43;;;7.70;99.90;;;;;;5012721;28;20205;-55
2022/12/27 09:02:39;;;;;;;14.07;1.30;;;7.70;99.90;;;;;;5012099;28;20261;-55
2022/12/27 09:05:05;;;;;;;14.53;1.37;;;7.80;99.90;;;;;;5012711;28;20254;-54
2022/12/27 09:07:31;;;;;;;8.47;1.30;;;7.90;99.90;;;;;;5012818;28;20214;-55
2022/12/27 09:09:57;;;;;;;4.03;0.70;;;7.90;99.90;;;;;;5012247;28;20214;-54
2022/12/27 09:12:22;;;;;;;11.97;1.23;;;8.00;99.90;;;;;;5010796;28;20720;-52
2022/12/27 09:14:48;;;;;;;14.20;1.23;;;8.10;99.90;;;;;;5003599;28;20198;-52
2022/12/27 09:17:14;;;;;;;15.17;1.53;;;8.30;99.90;;;;;;5007228;28;20175;-52
2022/12/27 09:19:39;;;;;;;11.10;1.03;;;8.70;99.90;;;;;;5011888;28;20182;-52
2022/12/27 09:22:05;;;;;;;7.30;0.87;;;8.90;99.90;;;;;;5012526;28;20673;-52
2022/12/27 09:24:31;;;;;;;8.33;1.33;;;8.90;99.90;;;;;;5010538;28;20183;-54
2022/12/27 09:26:56;;;;;;;10.43;1.30;;;8.90;99.90;;;;;;5011838;28;20189;-54
2022/12/27 09:29:22;;;;;;;9.20;1.10;;;8.70;99.90;;;;;;5011393;28;20653;-54
2022/12/27 09:31:47;;;;;;;10.77;1.50;;;8.80;99.90;;;;;;5012108;28;20229;-54
2022/12/27 09:34:13;;;;;;;4.70;1.00;;;8.70;99.90;;;;;;5011545;28;20170;-53
2022/12/27 09:36:39;;;;;;;11.10;1.30;;;8.80;99.90;;;;;;5012369;28;20292;-57
2022/12/27 09:39:05;;;;;;;6.10;1.17;;;8.80;99.90;;;;;;5010336;28;20201;-57
2022/12/27 09:41:36;;;;;;;6.73;1.20;;;8.80;99.90;;;;;;5011889;28;20681;-57
2022/12/27 09:44:09;;;;;;;8.77;1.23;;;8.70;99.90;;;;;;5000691;28;20198;-57
2022/12/27 09:46:47;;;;;;;8.23;0.97;;;8.80;99.90;;;;;;5000310;28;20261;-56
2022/12/27 09:49:26;;;;;;;9.17;1.57;;;9.00;99.90;;;;;;5027245;28;20178;-57
2022/12/27 09:51:58;;;;;;;12.33;1.60;;;8.90;99.90;;;;;;5011360;28;20296;-57
2022/12/27 09:54:53;;;;;;;14.07;1.50;;;9.00;99.90;;;;;;5011780;28;20166;-57
2022/12/27 09:57:25;;;;;;;11.70;1.57;;;9.10;99.90;;;;;;5012314;28;20182;-57
2022/12/27 09:59:59;;;;;;;11.17;0.90;;;9.60;99.90;;;;;;5010421;28;20606;-57
2022/12/27 10:02:27;;;;;;;7.37;1.37;;;9.30;99.90;;;;;;5011542;28;20209;-57
2022/12/27 10:04:55;;;;;;;7.77;1.60;;;9.30;99.90;;;;;;5011561;28;20634;-56
2022/12/27 10:07:52;;;;;;;8.27;1.37;;;9.30;99.90;;;;;;5009088;28;20173;-57
2022/12/27 10:10:23;;;;;;;6.83;1.33;;;9.30;99.90;;;;;;5002082;28;20340;-57
2022/12/27 10:12:48;;;;;;;14.03;1.90;;;9.30;99.90;;;;;;5002216;28;20194;-57
2022/12/27 10:15:14;;;;;;;8.80;1.87;;;9.40;99.90;;;;;;4999808;28;20179;-56
2022/12/27 10:17:48;;;;;;;7.80;1.17;;;9.50;99.90;;;;;;4991614;28;20623;-57
2022/12/27 10:20:32;;;;;;;11.77;1.73;;;9.40;99.90;;;;;;4996522;28;20210;-56
2022/12/27 10:23:02;;;;;;;11.30;1.50;;;9.50;99.90;;;;;;5011117;28;20185;-56
2022/12/27 10:25:30;;;;;;;10.37;1.20;;;9.60;99.90;;;;;;5007244;28;20179;-57
2022/12/27 10:28:08;;;;;;;12.13;1.50;;;9.60;99.90;;;;;;5010122;28;20186;-57
2022/12/27 10:30:34;;;;;;;6.50;1.13;;;;;;;;;;5009953;28;20623;-57
2022/12/27 10:33:00;;;;;;;12.60;1.70;;;9.70;99.90;;;;;;5009893;28;20273;-57
2022/12/27 10:35:27;;;;;;;4.20;0.73;;;9.70;99.90;;;;;;5007003;28;20183;-57
2022/12/27 10:37:53;;;;;;;11.13;1.13;;;9.80;99.90;;;;;;5010901;28;20186;-57
2022/12/27 10:40:30;;;;;;;11.00;1.43;;;9.90;99.90;;;;;;5011122;28;20178;-57
2022/12/27 10:43:03;;;;;;;9.40;1.57;;;10.00;99.90;;;;;;5011067;28;20186;-57
2022/12/27 10:45:35;;;;;;;9.17;2.00;;;10.00;99.90;;;;;;5010700;28;20182;-58
2022/12/27 10:48:24;;;;;;;8.30;1.47;;;10.00;99.90;;;;;;4991627;28;20167;-58
2022/12/27 10:50:58;;;;;;;9.77;1.13;;;9.90;99.90;;;;;;4994287;28;20313;-58
2022/12/27 10:53:36;;;;;;;12.90;1.40;;;10.00;99.90;;;;;;4993931;28;20669;-58
2022/12/27 10:56:16;;;;;;;13.63;1.97;;;10.00;99.90;;;;;;4995478;28;20258;-59
2022/12/27 10:58:50;;;;;;;13.40;1.93;;;10.00;99.90;;;;;;5004557;28;20182;-59
2022/12/27 11:01:21;;;;;;;15.43;1.73;;;10.10;99.90;;;;;;5008459;28;20202;-58
2022/12/27 11:03:47;;;;;;;12.40;1.90;;;10.10;99.90;;;;;;5028614;28;20193;-58
2022/12/27 11:06:24;;;;;;;12.67;1.80;;;10.10;99.90;;;;;;5013588;28;20179;-58
2022/12/27 11:08:52;;;;;;;17.17;3.07;;;10.10;99.90;;;;;;5008182;28;20178;-58
2022/12/27 11:11:20;;;;;;;12.57;1.83;;;10.00;99.90;;;;;;5014577;28;20504;-61
2022/12/27 11:13:46;;;;;;;21.23;2.10;;;10.10;99.90;;;;;;5014124;28;20205;-56
2022/12/27 11:16:17;;;;;;;18.60;2.50;;;10.10;99.90;;;;;;5014634;28;20181;-56
2022/12/27 11:18:50;;;;;;;11.47;1.80;;;10.10;99.90;;;;;;5014419;28;20202;-56
2022/12/27 11:21:16;;;;;;;16.03;2.87;;;10.10;99.90;;;;;;5014493;28;20214;-56
2022/12/27 11:23:48;;;;;;;12.77;2.20;;;10.10;99.90;;;;;;5014638;28;20175;-56
2022/12/27 11:26:30;;;;;;;14.90;3.20;;;10.20;99.90;;;;;;5014549;28;20175;-56
2022/12/27 11:29:00;;;;;;;10.87;1.97;;;10.20;99.90;;;;;;5014422;28;20221;-56
2022/12/27 11:31:36;;;;;;;19.13;2.33;;;10.10;99.90;;;;;;5014390;28;20672;-56
2022/12/27 11:34:07;;;;;;;13.63;3.27;;;10.10;99.90;;;;;;5014343;28;20174;-56
2022/12/27 11:36:43;;;;;;;17.50;1.73;;;10.10;99.90;;;;;;5004843;28;20179;-56
2022/12/27 11:39:40;;;;;;;17.50;2.10;;;10.10;99.90;;;;;;4993196;28;20175;-56
2022/12/27 11:42:32;;;;;;;13.47;2.73;;;10.20;99.90;;;;;;5006518;28;20221;-56
2022/12/27 11:45:16;;;;;;;7.03;1.47;;;10.20;99.90;;;;;;5014690;28;20274;-56
2022/12/27 11:47:51;;;;;;;13.00;2.03;;;10.30;99.90;;;;;;5010253;28;20543;-56
2022/12/27 11:50:37;;;;;;;12.30;1.90;;;10.50;99.90;;;;;;4993827;28;20201;-56
2022/12/27 11:53:26;;;;;;;8.90;1.20;;;10.50;99.90;;;;;;4994033;28;20646;-56
2022/12/27 11:56:11;;;;;;;10.57;1.67;;;10.40;99.90;;;;;;4992576;28;20195;-57
2022/12/27 11:59:14;;;;;;;9.43;1.53;;;10.50;99.90;;;;;;5008247;28;20286;-56
2022/12/27 12:01:46;;;;;;;11.83;1.90;;;10.50;99.90;;;;;;5007266;28;20241;-57
2022/12/27 12:04:36;;;;;;;13.57;2.33;;;10.50;99.90;;;;;;5009258;28;20182;-56
2022/12/27 12:07:21;;;;;;;16.83;2.40;;;10.40;99.90;;;;;;5012918;28;20205;-57
2022/12/27 12:10:22;;;;;;;14.17;2.87;;;10.50;99.90;;;;;;5013286;28;20182;-56
2022/12/27 12:12:48;;;;;;;16.87;2.83;;;;;;;;;;5012568;28;20206;-55
2022/12/27 12:15:29;;;;;;;21.80;3.17;;;10.70;99.90;;;;;;5009618;28;20182;-55
2022/12/27 12:18:07;;;;;;;14.20;1.90;;;10.50;99.90;;;;;;5004489;28;20181;-55
2022/12/27 12:21:13;;;;;;;19.17;3.03;;;10.60;99.90;;;;;;5012656;28;20654;-55
2022/12/27 12:23:49;;;;;;;18.20;2.60;;;10.60;99.90;;;;;;5021883;28;20197;-56
2022/12/27 12:26:24;;;;;;;34.43;5.93;;;10.60;99.90;;;;;;5013048;28;20211;-56
2022/12/27 12:29:31;;;;;;;53.50;10.83;;;10.70;99.90;;;;;;5012871;28;20209;-55
2022/12/27 12:32:22;;;;;;;6.53;1.47;;;10.60;99.90;;;;;;5013275;28;20175;-55
2022/12/27 12:35:11;;;;;;;20.27;2.17;;;10.50;99.90;;;;;;5012569;28;20193;-55
2022/12/27 12:37:42;;;;;;;12.40;2.37;;;10.50;99.90;;;;;;5012302;28;20216;-54
2022/12/27 12:40:31;;;;;;;10.07;1.97;;;10.50;99.90;;;;;;5012692;28;20625;-54
2022/12/27 12:43:09;;;;;;;8.83;2.70;;;10.40;99.90;;;;;;5012016;28;20262;-54
2022/12/27 12:46:03;;;;;;;20.90;6.00;;;10.60;99.90;;;;;;4994435;28;20196;-54
2022/12/27 12:48:40;;;;;;;37.37;11.70;;;10.30;99.90;;;;;;5011959;28;20222;-60
2022/12/27 12:51:36;;;;;;;6.33;2.00;;;10.40;99.90;;;;;;5011138;28;20229;-54
2022/12/27 12:54:01;;;;;;;14.27;2.37;;;10.40;99.90;;;;;;5000421;28;20183;-54
2022/12/27 12:56:57;;;;;;;11.10;3.00;;;10.40;99.90;;;;;;4989065;28;20201;-55
2022/12/27 12:59:26;;;;;;;10.67;2.03;;;10.20;99.90;;;;;;5006298;28;20245;-55
2022/12/27 13:02:11;;;;;;;10.70;1.97;;;10.40;99.90;;;;;;5007744;28;20770;-55
2022/12/27 13:05:10;;;;;;;15.07;2.80;;;10.40;99.90;;;;;;4996048;28;20221;-60
2022/12/27 13:07:43;;;;;;;12.00;1.77;;;10.30;99.90;;;;;;4992463;28;20191;-55
2022/12/27 13:10:09;;;;;;;7.33;1.30;;;;;;;;;;4992671;28;20172;-55
2022/12/27 13:13:16;;;;;;;12.57;1.80;;;10.20;99.90;;;;;;4992106;28;20567;-55
2022/12/27 13:16:03;;;;;;;8.47;1.97;;;10.10;99.90;;;;;;5006218;28;20193;-55
2022/12/27 13:19:00;;;;;;;9.73;2.27;;;10.10;99.90;;;;;;5011928;28;20197;-55
2022/12/27 13:21:56;;;;;;;8.93;1.80;;;10.10;99.90;;;;;;5011568;28;21155;-55
2022/12/27 13:24:45;;;;;;;11.30;1.53;;;10.00;99.90;;;;;;5012125;28;20181;-55
2022/12/27 13:27:30;;;;;;;11.13;2.47;;;10.10;99.90;;;;;;5011876;28;20175;-55
2022/12/27 13:30:14;;;;;;;18.23;3.70;;;9.90;99.90;;;;;;5011995;28;20186;-55
2022/12/27 13:33:01;;;;;;;18.43;1.87;;;10.10;99.90;;;;;;5012228;28;20536;-55
2022/12/27 13:35:31;;;;;;;15.00;2.13;;;9.90;99.90;;;;;;5011761;28;20587;-55
2022/12/27 13:38:25;;;;;;;13.70;2.87;;;9.60;99.90;;;;;;5011520;28;20688;-55
2022/12/27 13:41:34;;;;;;;11.17;2.07;;;9.80;99.90;;;;;;5011559;28;20571;-55
2022/12/27 13:44:10;;;;;;;6.53;1.80;;;9.90;99.90;;;;;;5011057;28;20200;-55
2022/12/27 13:47:08;;;;;;;13.97;4.47;;;9.90;99.90;;;;;;5010792;28;20178;-55
2022/12/27 13:50:01;;;;;;;14.80;2.70;;;9.70;99.90;;;;;;5005981;28;20218;-55
2022/12/27 13:52:27;;;;;;;19.97;2.70;;;9.70;99.90;;;;;;4997388;28;20231;-55
2022/12/27 13:55:19;;;;;;;27.07;10.10;;;9.70;99.90;;;;;;4992131;28;20182;-56
2022/12/27 13:58:09;;;;;;;19.67;5.80;;;10.00;99.90;;;;;;4992102;28;20171;-55
2022/12/27 14:00:45;;;;;;;25.87;7.63;;;9.70;99.90;;;;;;5007314;28;20219;-56
2022/12/27 14:03:53;;;;;;;17.77;3.23;;;9.70;99.90;;;;;;5010827;28;20669;-56
2022/12/27 14:06:49;;;;;;;13.73;2.57;;;9.70;99.90;;;;;;5011511;28;20171;-56
2022/12/27 14:09:33;;;;;;;14.33;4.20;;;9.70;99.90;;;;;;5011279;28;20197;-56
2022/12/27 14:12:10;;;;;;;15.37;2.43;;;9.70;99.90;;;;;;5010904;28;20286;-56
2022/12/27 14:14:39;;;;;;;10.50;2.27;;;9.60;99.90;;;;;;5010538;28;20178;-56
2022/12/27 14:17:22;;;;;;;11.57;1.90;;;9.60;99.90;;;;;;5010737;28;20640;-57
2022/12/27 14:20:17;;;;;;;38.23;10.70;;;9.60;99.90;;;;;;5011280;28;20246;-56
2022/12/27 14:23:02;;;;;;;20.90;5.93;;;9.80;99.90;;;;;;5001947;28;20225;-55
2022/12/27 14:26:18;;;;;;;14.07;3.83;;;9.60;99.90;;;;;;5009727;28;20585;-56
2022/12/27 14:29:05;;;;;;;9.47;2.67;;;9.70;99.90;;;;;;4988901;28;20222;-55
2022/12/27 14:32:09;;;;;;;13.47;2.60;;;9.60;99.90;;;;;;5006845;28;20175;-57
2022/12/27 14:35:09;;;;;;;13.83;3.77;;;9.50;99.90;;;;;;5007702;28;20179;-55
2022/12/27 14:37:50;;;;;;;14.77;3.17;;;9.60;99.90;;;;;;5030970;28;20240;-55
2022/12/27 14:40:21;;;;;;;11.90;3.63;;;9.60;99.90;;;;;;5030924;28;20182;-56
2022/12/27 14:43:40;;;;;;;14.50;3.47;;;9.70;99.90;;;;;;5025078;28;20225;-56
2022/12/27 14:46:24;;;;;;;10.40;2.20;;;9.60;99.90;;;;;;5010624;28;20205;-56
2022/12/27 14:49:08;;;;;;;13.57;1.97;;;9.60;99.90;;;;;;5007973;28;20197;-57
2022/12/27 14:52:27;;;;;;;13.03;2.43;;;9.60;99.90;;;;;;5009181;28;20276;-57
2022/12/27 14:55:25;;;;;;;13.37;2.80;;;9.60;99.90;;;;;;5011072;28;20174;-57
2022/12/27 14:57:53;;;;;;;16.57;2.80;;;9.60;99.90;;;;;;5011080;28;20744;-57
2022/12/27 15:00:24;;;;;;;12.57;2.70;;;9.60;99.90;;;;;;5010518;28;20463;-57